sensor_id;sensor_type;location;lat;lon;timestamp;P1;durP1;ratioP1;P2;durP2;ratioP2
8407;SDS011;4241;48.452;9.216;2022-12-05T00:00:22;307.77;;;93.37;;
8407;SDS011;4241;48.452;9.216;2022-12-05T00:02:51;310.20;;;94.13;;
8407;SDS011;4241;48.452;9.216;2022-12-05T00:05:18;316.77;;;95.33;;
8407;SDS011;4241;48.452;9.216;2022-12-05T00:07:44;339.97;;;98.93;;
8407;SDS011;4241;48.452;9.216;2022-12-05T00:10:11;383.00;;;107.27;;
8407;SDS011;4241;48.452;9.216;2022-12-05T00:12:38;355.13;;;101.83;;
8407;SDS011;4241;48.452;9.216;2022-12-05T00:15:09;357.80;;;100.80;;
8407;SDS011;4241;48.452;9.216;2022-12-05T00:17:37;355.03;;;101.43;;
8407;SDS011;4241;48.452;9.216;2022-12-05T00:20:07;357.43;;;103.13;;
8407;SDS011;4241;48.452;9.216;2022-12-05T00:22:34;352.77;;;102.30;;
8407;SDS011;4241;48.452;9.216;2022-12-05T00:25:02;358.80;;;102.97;;
8407;SDS011;4241;48.452;9.216;2022-12-05T00:27:29;362.93;;;104.80;;
8407;SDS011;4241;48.452;9.216;2022-12-05T00:29:56;359.93;;;102.73;;
8407;SDS011;4241;48.452;9.216;2022-12-05T00:32:23;358.30;;;102.87;;
8407;SDS011;4241;48.452;9.216;2022-12-05T00:34:50;374.43;;;109.13;;
8407;SDS011;4241;48.452;9.216;2022-12-05T00:37:18;347.83;;;100.67;;
8407;SDS011;4241;48.452;9.216;2022-12-05T00:39:45;324.30;;;96.83;;
8407;SDS011;4241;48.452;9.216;2022-12-05T00:42:12;312.70;;;93.63;;
8407;SDS011;4241;48.452;9.216;2022-12-05T00:44:39;315.77;;;96.33;;
8407;SDS011;4241;48.452;9.216;2022-12-05T00:47:06;313.43;;;94.83;;
8407;SDS011;4241;48.452;9.216;2022-12-05T00:49:33;311.60;;;95.00;;
8407;SDS011;4241;48.452;9.216;2022-12-05T00:52:00;308.73;;;93.47;;
8407;SDS011;4241;48.452;9.216;2022-12-05T00:54:28;311.10;;;94.47;;
8407;SDS011;4241;48.452;9.216;2022-12-05T00:56:55;314.83;;;95.20;;
8407;SDS011;4241;48.452;9.216;2022-12-05T00:59:21;317.50;;;95.07;;
8407;SDS011;4241;48.452;9.216;2022-12-05T01:01:49;344.70;;;100.50;;
8407;SDS011;4241;48.452;9.216;2022-12-05T01:04:18;355.83;;;102.57;;
8407;SDS011;4241;48.452;9.216;2022-12-05T01:06:47;331.93;;;97.63;;
8407;SDS011;4241;48.452;9.216;2022-12-05T01:09:15;352.43;;;100.70;;
8407;SDS011;4241;48.452;9.216;2022-12-05T01:11:45;347.73;;;101.93;;
8407;SDS011;4241;48.452;9.216;2022-12-05T01:14:13;352.13;;;100.97;;
8407;SDS011;4241;48.452;9.216;2022-12-05T01:16:42;316.37;;;95.47;;
8407;SDS011;4241;48.452;9.216;2022-12-05T01:19:11;313.57;;;95.23;;
8407;SDS011;4241;48.452;9.216;2022-12-05T01:21:39;311.27;;;93.93;;
8407;SDS011;4241;48.452;9.216;2022-12-05T01:24:06;318.07;;;95.83;;
8407;SDS011;4241;48.452;9.216;2022-12-05T01:26:33;318.17;;;96.20;;
8407;SDS011;4241;48.452;9.216;2022-12-05T01:29:02;323.00;;;96.57;;
8407;SDS011;4241;48.452;9.216;2022-12-05T01:31:30;325.40;;;96.83;;
8407;SDS011;4241;48.452;9.216;2022-12-05T01:33:58;328.50;;;97.57;;
8407;SDS011;4241;48.452;9.216;2022-12-05T01:36:27;330.50;;;97.57;;
8407;SDS011;4241;48.452;9.216;2022-12-05T01:38:54;333.33;;;98.77;;
8407;SDS011;4241;48.452;9.216;2022-12-05T01:41:23;332.97;;;98.03;;
8407;SDS011;4241;48.452;9.216;2022-12-05T01:43:55;341.43;;;101.43;;
8407;SDS011;4241;48.452;9.216;2022-12-05T01:46:25;343.20;;;99.90;;
8407;SDS011;4241;48.452;9.216;2022-12-05T01:48:54;365.30;;;103.20;;
8407;SDS011;4241;48.452;9.216;2022-12-05T01:51:25;391.30;;;106.67;;
8407;SDS011;4241;48.452;9.216;2022-12-05T01:53:52;387.90;;;108.40;;
8407;SDS011;4241;48.452;9.216;2022-12-05T01:56:19;389.50;;;107.23;;
8407;SDS011;4241;48.452;9.216;2022-12-05T01:58:46;379.07;;;105.20;;
8407;SDS011;4241;48.452;9.216;2022-12-05T02:01:14;365.13;;;102.63;;
8407;SDS011;4241;48.452;9.216;2022-12-05T02:03:45;386.37;;;106.87;;
8407;SDS011;4241;48.452;9.216;2022-12-05T02:06:15;391.77;;;108.23;;
8407;SDS011;4241;48.452;9.216;2022-12-05T02:08:42;383.77;;;107.37;;
8407;SDS011;4241;48.452;9.216;2022-12-05T02:11:10;383.20;;;106.10;;
8407;SDS011;4241;48.452;9.216;2022-12-05T02:13:41;382.07;;;106.07;;
8407;SDS011;4241;48.452;9.216;2022-12-05T02:16:20;385.43;;;107.13;;
8407;SDS011;4241;48.452;9.216;2022-12-05T02:19:01;382.37;;;105.63;;
8407;SDS011;4241;48.452;9.216;2022-12-05T02:21:47;348.97;;;100.03;;
8407;SDS011;4241;48.452;9.216;2022-12-05T02:24:44;348.37;;;100.53;;
8407;SDS011;4241;48.452;9.216;2022-12-05T02:27:37;350.23;;;101.43;;
8407;SDS011;4241;48.452;9.216;2022-12-05T02:30:15;350.07;;;102.33;;
8407;SDS011;4241;48.452;9.216;2022-12-05T02:32:49;348.00;;;100.47;;
8407;SDS011;4241;48.452;9.216;2022-12-05T02:35:38;347.33;;;100.67;;
8407;SDS011;4241;48.452;9.216;2022-12-05T02:38:14;345.27;;;101.73;;
8407;SDS011;4241;48.452;9.216;2022-12-05T02:40:49;344.57;;;100.17;;
8407;SDS011;4241;48.452;9.216;2022-12-05T02:43:23;349.77;;;100.63;;
8407;SDS011;4241;48.452;9.216;2022-12-05T02:45:59;348.93;;;101.30;;
8407;SDS011;4241;48.452;9.216;2022-12-05T02:48:32;346.20;;;99.77;;
8407;SDS011;4241;48.452;9.216;2022-12-05T02:51:01;352.50;;;101.60;;
8407;SDS011;4241;48.452;9.216;2022-12-05T02:53:30;355.33;;;101.90;;
8407;SDS011;4241;48.452;9.216;2022-12-05T02:55:58;350.43;;;101.43;;
8407;SDS011;4241;48.452;9.216;2022-12-05T02:58:26;349.50;;;101.37;;
8407;SDS011;4241;48.452;9.216;2022-12-05T03:01:00;352.93;;;102.40;;
8407;SDS011;4241;48.452;9.216;2022-12-05T03:03:27;356.90;;;102.27;;
8407;SDS011;4241;48.452;9.216;2022-12-05T03:05:57;364.80;;;104.57;;
8407;SDS011;4241;48.452;9.216;2022-12-05T03:08:28;344.10;;;100.03;;
8407;SDS011;4241;48.452;9.216;2022-12-05T03:10:57;352.57;;;101.93;;
8407;SDS011;4241;48.452;9.216;2022-12-05T03:13:28;359.07;;;103.93;;
8407;SDS011;4241;48.452;9.216;2022-12-05T03:16:02;354.80;;;101.93;;
8407;SDS011;4241;48.452;9.216;2022-12-05T03:18:35;340.27;;;101.77;;
8407;SDS011;4241;48.452;9.216;2022-12-05T03:21:07;336.67;;;98.80;;
8407;SDS011;4241;48.452;9.216;2022-12-05T03:23:43;340.60;;;99.60;;
8407;SDS011;4241;48.452;9.216;2022-12-05T03:26:15;342.93;;;101.23;;
8407;SDS011;4241;48.452;9.216;2022-12-05T03:28:53;338.80;;;98.57;;
8407;SDS011;4241;48.452;9.216;2022-12-05T03:31:31;337.77;;;98.93;;
8407;SDS011;4241;48.452;9.216;2022-12-05T03:34:02;337.00;;;99.87;;
8407;SDS011;4241;48.452;9.216;2022-12-05T03:36:34;333.17;;;98.10;;
8407;SDS011;4241;48.452;9.216;2022-12-05T03:39:06;331.87;;;97.97;;
8407;SDS011;4241;48.452;9.216;2022-12-05T03:41:42;324.43;;;95.87;;
8407;SDS011;4241;48.452;9.216;2022-12-05T03:44:17;332.17;;;97.63;;
8407;SDS011;4241;48.452;9.216;2022-12-05T03:46:51;332.57;;;97.50;;
8407;SDS011;4241;48.452;9.216;2022-12-05T03:49:22;329.97;;;97.27;;
8407;SDS011;4241;48.452;9.216;2022-12-05T03:51:56;339.03;;;102.30;;
8407;SDS011;4241;48.452;9.216;2022-12-05T03:54:28;338.53;;;101.43;;
8407;SDS011;4241;48.452;9.216;2022-12-05T03:56:59;341.73;;;100.73;;
8407;SDS011;4241;48.452;9.216;2022-12-05T03:59:31;341.90;;;99.60;;
8407;SDS011;4241;48.452;9.216;2022-12-05T04:02:03;346.03;;;102.90;;
8407;SDS011;4241;48.452;9.216;2022-12-05T04:04:37;341.57;;;99.93;;
8407;SDS011;4241;48.452;9.216;2022-12-05T04:07:09;338.93;;;98.60;;
8407;SDS011;4241;48.452;9.216;2022-12-05T04:09:39;342.37;;;99.60;;
8407;SDS011;4241;48.452;9.216;2022-12-05T04:12:12;346.57;;;102.40;;
8407;SDS011;4241;48.452;9.216;2022-12-05T04:14:43;345.20;;;103.03;;
8407;SDS011;4241;48.452;9.216;2022-12-05T04:17:15;336.97;;;98.23;;
8407;SDS011;4241;48.452;9.216;2022-12-05T04:19:46;328.77;;;97.37;;
8407;SDS011;4241;48.452;9.216;2022-12-05T04:22:32;338.50;;;100.27;;
8407;SDS011;4241;48.452;9.216;2022-12-05T04:25:01;333.03;;;98.10;;
8407;SDS011;4241;48.452;9.216;2022-12-05T04:27:49;330.00;;;96.27;;
8407;SDS011;4241;48.452;9.216;2022-12-05T04:30:23;332.07;;;97.33;;
8407;SDS011;4241;48.452;9.216;2022-12-05T04:32:56;335.67;;;98.67;;
8407;SDS011;4241;48.452;9.216;2022-12-05T04:35:28;330.77;;;97.27;;
8407;SDS011;4241;48.452;9.216;2022-12-05T04:37:59;325.10;;;96.10;;
8407;SDS011;4241;48.452;9.216;2022-12-05T04:40:30;298.63;;;91.87;;
8407;SDS011;4241;48.452;9.216;2022-12-05T04:43:02;296.77;;;91.77;;
8407;SDS011;4241;48.452;9.216;2022-12-05T04:45:31;293.10;;;90.93;;
8407;SDS011;4241;48.452;9.216;2022-12-05T04:48:01;290.40;;;91.27;;
8407;SDS011;4241;48.452;9.216;2022-12-05T04:50:35;286.07;;;89.07;;
8407;SDS011;4241;48.452;9.216;2022-12-05T04:53:03;282.93;;;87.93;;
8407;SDS011;4241;48.452;9.216;2022-12-05T04:55:32;282.07;;;88.10;;
8407;SDS011;4241;48.452;9.216;2022-12-05T04:58:04;283.87;;;88.63;;
8407;SDS011;4241;48.452;9.216;2022-12-05T05:00:34;280.47;;;88.20;;
8407;SDS011;4241;48.452;9.216;2022-12-05T05:03:09;283.17;;;89.00;;
8407;SDS011;4241;48.452;9.216;2022-12-05T05:05:42;281.10;;;88.67;;
8407;SDS011;4241;48.452;9.216;2022-12-05T05:08:15;275.47;;;86.30;;
8407;SDS011;4241;48.452;9.216;2022-12-05T05:10:44;286.03;;;90.37;;
8407;SDS011;4241;48.452;9.216;2022-12-05T05:13:19;279.23;;;88.63;;
8407;SDS011;4241;48.452;9.216;2022-12-05T05:15:46;277.73;;;87.50;;
8407;SDS011;4241;48.452;9.216;2022-12-05T05:18:14;281.93;;;88.03;;
8407;SDS011;4241;48.452;9.216;2022-12-05T05:20:41;281.67;;;88.13;;
8407;SDS011;4241;48.452;9.216;2022-12-05T05:23:08;313.83;;;108.03;;
8407;SDS011;4241;48.452;9.216;2022-12-05T05:25:35;281.33;;;87.90;;
8407;SDS011;4241;48.452;9.216;2022-12-05T05:28:01;281.67;;;88.33;;
8407;SDS011;4241;48.452;9.216;2022-12-05T05:30:28;288.30;;;90.70;;
8407;SDS011;4241;48.452;9.216;2022-12-05T05:32:55;284.43;;;88.50;;
8407;SDS011;4241;48.452;9.216;2022-12-05T05:35:25;287.77;;;89.77;;
8407;SDS011;4241;48.452;9.216;2022-12-05T05:37:52;289.80;;;90.37;;
8407;SDS011;4241;48.452;9.216;2022-12-05T05:40:19;290.57;;;90.27;;
8407;SDS011;4241;48.452;9.216;2022-12-05T05:42:47;291.67;;;90.43;;
8407;SDS011;4241;48.452;9.216;2022-12-05T05:45:15;290.57;;;90.60;;
8407;SDS011;4241;48.452;9.216;2022-12-05T05:47:42;287.87;;;89.90;;
8407;SDS011;4241;48.452;9.216;2022-12-05T05:50:09;299.60;;;94.03;;
8407;SDS011;4241;48.452;9.216;2022-12-05T05:52:38;297.63;;;91.57;;
8407;SDS011;4241;48.452;9.216;2022-12-05T05:55:05;296.57;;;91.77;;
8407;SDS011;4241;48.452;9.216;2022-12-05T05:57:33;300.30;;;92.17;;
8407;SDS011;4241;48.452;9.216;2022-12-05T06:00:00;318.07;;;98.23;;
8407;SDS011;4241;48.452;9.216;2022-12-05T06:02:30;304.90;;;95.17;;
8407;SDS011;4241;48.452;9.216;2022-12-05T06:04:58;306.30;;;94.53;;
8407;SDS011;4241;48.452;9.216;2022-12-05T06:07:25;310.77;;;94.20;;
8407;SDS011;4241;48.452;9.216;2022-12-05T06:09:54;310.60;;;94.37;;
8407;SDS011;4241;48.452;9.216;2022-12-05T06:12:21;315.33;;;96.93;;
8407;SDS011;4241;48.452;9.216;2022-12-05T06:14:47;328.53;;;101.20;;
8407;SDS011;4241;48.452;9.216;2022-12-05T06:17:15;337.13;;;99.73;;
8407;SDS011;4241;48.452;9.216;2022-12-05T06:19:41;314.60;;;94.07;;
8407;SDS011;4241;48.452;9.216;2022-12-05T06:22:08;344.87;;;100.53;;
8407;SDS011;4241;48.452;9.216;2022-12-05T06:24:35;366.40;;;104.73;;
8407;SDS011;4241;48.452;9.216;2022-12-05T06:27:10;357.27;;;103.73;;
8407;SDS011;4241;48.452;9.216;2022-12-05T06:29:37;373.93;;;107.97;;
8407;SDS011;4241;48.452;9.216;2022-12-05T06:32:04;324.13;;;96.90;;
8407;SDS011;4241;48.452;9.216;2022-12-05T06:34:31;336.53;;;98.80;;
8407;SDS011;4241;48.452;9.216;2022-12-05T06:36:59;356.40;;;102.67;;
8407;SDS011;4241;48.452;9.216;2022-12-05T06:39:26;337.80;;;98.23;;
8407;SDS011;4241;48.452;9.216;2022-12-05T06:41:53;342.73;;;98.03;;
8407;SDS011;4241;48.452;9.216;2022-12-05T06:44:21;343.57;;;99.93;;
8407;SDS011;4241;48.452;9.216;2022-12-05T06:46:50;320.40;;;94.67;;
8407;SDS011;4241;48.452;9.216;2022-12-05T06:49:18;332.13;;;97.43;;
8407;SDS011;4241;48.452;9.216;2022-12-05T06:51:45;325.60;;;96.13;;
8407;SDS011;4241;48.452;9.216;2022-12-05T06:54:12;334.47;;;97.47;;
8407;SDS011;4241;48.452;9.216;2022-12-05T06:56:39;320.23;;;95.47;;
8407;SDS011;4241;48.452;9.216;2022-12-05T06:59:05;325.40;;;100.90;;
8407;SDS011;4241;48.452;9.216;2022-12-05T07:01:34;307.77;;;93.27;;
8407;SDS011;4241;48.452;9.216;2022-12-05T07:04:03;307.83;;;93.30;;
8407;SDS011;4241;48.452;9.216;2022-12-05T07:06:31;335.43;;;97.70;;
8407;SDS011;4241;48.452;9.216;2022-12-05T07:08:57;349.50;;;102.63;;
8407;SDS011;4241;48.452;9.216;2022-12-05T07:11:24;338.53;;;99.63;;
8407;SDS011;4241;48.452;9.216;2022-12-05T07:13:51;328.63;;;97.23;;
8407;SDS011;4241;48.452;9.216;2022-12-05T07:16:18;330.43;;;97.20;;
8407;SDS011;4241;48.452;9.216;2022-12-05T07:18:46;325.60;;;96.37;;
8407;SDS011;4241;48.452;9.216;2022-12-05T07:21:14;325.37;;;96.43;;
8407;SDS011;4241;48.452;9.216;2022-12-05T07:23:41;326.10;;;96.97;;
8407;SDS011;4241;48.452;9.216;2022-12-05T07:26:10;333.30;;;99.33;;
8407;SDS011;4241;48.452;9.216;2022-12-05T07:28:38;338.87;;;99.83;;
8407;SDS011;4241;48.452;9.216;2022-12-05T07:31:05;336.60;;;98.17;;
8407;SDS011;4241;48.452;9.216;2022-12-05T07:33:33;331.37;;;98.37;;
8407;SDS011;4241;48.452;9.216;2022-12-05T07:36:02;327.93;;;96.50;;
8407;SDS011;4241;48.452;9.216;2022-12-05T07:38:30;332.67;;;101.30;;
8407;SDS011;4241;48.452;9.216;2022-12-05T07:40:58;326.43;;;97.10;;
8407;SDS011;4241;48.452;9.216;2022-12-05T07:43:25;325.80;;;97.50;;
8407;SDS011;4241;48.452;9.216;2022-12-05T07:45:51;332.37;;;99.00;;
8407;SDS011;4241;48.452;9.216;2022-12-05T07:48:18;331.30;;;100.67;;
8407;SDS011;4241;48.452;9.216;2022-12-05T07:50:45;329.07;;;97.20;;
8407;SDS011;4241;48.452;9.216;2022-12-05T07:53:13;329.97;;;98.87;;
8407;SDS011;4241;48.452;9.216;2022-12-05T07:55:40;333.23;;;98.50;;
8407;SDS011;4241;48.452;9.216;2022-12-05T07:58:07;336.40;;;99.20;;
8407;SDS011;4241;48.452;9.216;2022-12-05T08:00:34;347.53;;;101.40;;
8407;SDS011;4241;48.452;9.216;2022-12-05T08:03:00;363.00;;;104.10;;
8407;SDS011;4241;48.452;9.216;2022-12-05T08:05:28;360.17;;;103.87;;
8407;SDS011;4241;48.452;9.216;2022-12-05T08:07:55;343.30;;;101.37;;
8407;SDS011;4241;48.452;9.216;2022-12-05T08:10:23;348.93;;;101.87;;
8407;SDS011;4241;48.452;9.216;2022-12-05T08:12:50;365.03;;;105.53;;
8407;SDS011;4241;48.452;9.216;2022-12-05T08:15:17;375.37;;;107.00;;
8407;SDS011;4241;48.452;9.216;2022-12-05T08:17:44;381.83;;;108.80;;
8407;SDS011;4241;48.452;9.216;2022-12-05T08:20:11;381.03;;;109.37;;
8407;SDS011;4241;48.452;9.216;2022-12-05T08:22:38;384.07;;;109.60;;
8407;SDS011;4241;48.452;9.216;2022-12-05T08:25:05;382.97;;;108.53;;
8407;SDS011;4241;48.452;9.216;2022-12-05T08:27:34;380.90;;;107.93;;
8407;SDS011;4241;48.452;9.216;2022-12-05T08:30:01;386.57;;;109.33;;
8407;SDS011;4241;48.452;9.216;2022-12-05T08:32:28;391.37;;;111.87;;
8407;SDS011;4241;48.452;9.216;2022-12-05T08:34:55;397.57;;;116.03;;
8407;SDS011;4241;48.452;9.216;2022-12-05T08:37:22;396.90;;;111.90;;
8407;SDS011;4241;48.452;9.216;2022-12-05T08:39:49;397.43;;;111.93;;
8407;SDS011;4241;48.452;9.216;2022-12-05T08:42:15;402.57;;;114.03;;
8407;SDS011;4241;48.452;9.216;2022-12-05T08:44:43;403.97;;;117.17;;
8407;SDS011;4241;48.452;9.216;2022-12-05T08:47:10;392.53;;;112.80;;
8407;SDS011;4241;48.452;9.216;2022-12-05T08:49:37;389.33;;;113.90;;
8407;SDS011;4241;48.452;9.216;2022-12-05T08:52:04;376.73;;;109.87;;
8407;SDS011;4241;48.452;9.216;2022-12-05T08:54:31;370.53;;;107.57;;
8407;SDS011;4241;48.452;9.216;2022-12-05T08:56:57;369.17;;;110.97;;
8407;SDS011;4241;48.452;9.216;2022-12-05T08:59:24;354.37;;;104.40;;
8407;SDS011;4241;48.452;9.216;2022-12-05T09:01:52;352.33;;;106.17;;
8407;SDS011;4241;48.452;9.216;2022-12-05T09:04:19;348.63;;;105.27;;
8407;SDS011;4241;48.452;9.216;2022-12-05T09:06:46;348.07;;;104.70;;
8407;SDS011;4241;48.452;9.216;2022-12-05T09:09:13;334.87;;;102.07;;
8407;SDS011;4241;48.452;9.216;2022-12-05T09:11:41;318.63;;;99.27;;
8407;SDS011;4241;48.452;9.216;2022-12-05T09:14:13;334.90;;;103.43;;
8407;SDS011;4241;48.452;9.216;2022-12-05T09:16:42;344.17;;;105.07;;
8407;SDS011;4241;48.452;9.216;2022-12-05T09:19:11;347.23;;;104.23;;
8407;SDS011;4241;48.452;9.216;2022-12-05T09:21:39;348.90;;;105.13;;
8407;SDS011;4241;48.452;9.216;2022-12-05T09:24:08;334.07;;;102.57;;
8407;SDS011;4241;48.452;9.216;2022-12-05T09:26:35;351.50;;;105.27;;
8407;SDS011;4241;48.452;9.216;2022-12-05T09:29:02;357.03;;;107.37;;
8407;SDS011;4241;48.452;9.216;2022-12-05T09:31:29;358.73;;;106.37;;
8407;SDS011;4241;48.452;9.216;2022-12-05T09:33:56;341.83;;;104.67;;
8407;SDS011;4241;48.452;9.216;2022-12-05T09:36:25;353.73;;;107.37;;
8407;SDS011;4241;48.452;9.216;2022-12-05T09:38:53;367.97;;;114.10;;
8407;SDS011;4241;48.452;9.216;2022-12-05T09:41:35;360.27;;;108.93;;
8407;SDS011;4241;48.452;9.216;2022-12-05T09:44:42;351.67;;;106.07;;
8407;SDS011;4241;48.452;9.216;2022-12-05T09:50:22;351.73;;;104.97;;
8407;SDS011;4241;48.452;9.216;2022-12-05T09:52:54;362.23;;;107.43;;
8407;SDS011;4241;48.452;9.216;2022-12-05T09:55:28;364.93;;;111.10;;
8407;SDS011;4241;48.452;9.216;2022-12-05T09:58:01;362.30;;;107.73;;
8407;SDS011;4241;48.452;9.216;2022-12-05T10:00:30;361.53;;;107.90;;
8407;SDS011;4241;48.452;9.216;2022-12-05T10:03:01;363.60;;;109.13;;
8407;SDS011;4241;48.452;9.216;2022-12-05T10:05:46;345.37;;;105.30;;
8407;SDS011;4241;48.452;9.216;2022-12-05T10:08:18;347.33;;;105.27;;
8407;SDS011;4241;48.452;9.216;2022-12-05T10:10:53;338.67;;;103.67;;
8407;SDS011;4241;48.452;9.216;2022-12-05T10:13:39;341.63;;;107.30;;
8407;SDS011;4241;48.452;9.216;2022-12-05T10:16:15;322.60;;;101.77;;
8407;SDS011;4241;48.452;9.216;2022-12-05T10:18:45;313.70;;;99.93;;
8407;SDS011;4241;48.452;9.216;2022-12-05T10:21:18;315.17;;;101.43;;
8407;SDS011;4241;48.452;9.216;2022-12-05T10:23:51;319.60;;;101.87;;
8407;SDS011;4241;48.452;9.216;2022-12-05T10:26:20;316.17;;;100.53;;
8407;SDS011;4241;48.452;9.216;2022-12-05T10:28:52;333.90;;;107.43;;
8407;SDS011;4241;48.452;9.216;2022-12-05T10:31:24;328.53;;;102.87;;
8407;SDS011;4241;48.452;9.216;2022-12-05T10:33:56;340.43;;;104.63;;
8407;SDS011;4241;48.452;9.216;2022-12-05T10:36:28;337.33;;;105.97;;
8407;SDS011;4241;48.452;9.216;2022-12-05T10:38:57;314.03;;;101.03;;
8407;SDS011;4241;48.452;9.216;2022-12-05T10:41:24;310.57;;;100.67;;
8407;SDS011;4241;48.452;9.216;2022-12-05T10:43:52;310.00;;;100.97;;
8407;SDS011;4241;48.452;9.216;2022-12-05T10:46:21;313.67;;;102.53;;
8407;SDS011;4241;48.452;9.216;2022-12-05T10:48:49;330.93;;;104.80;;
8407;SDS011;4241;48.452;9.216;2022-12-05T10:51:17;358.17;;;108.90;;
8407;SDS011;4241;48.452;9.216;2022-12-05T10:53:49;391.33;;;114.67;;
8407;SDS011;4241;48.452;9.216;2022-12-05T10:59:05;401.60;;;116.93;;
8407;SDS011;4241;48.452;9.216;2022-12-05T11:01:34;393.67;;;115.63;;
8407;SDS011;4241;48.452;9.216;2022-12-05T11:04:04;402.40;;;118.23;;
8407;SDS011;4241;48.452;9.216;2022-12-05T11:06:46;371.27;;;111.60;;
8407;SDS011;4241;48.452;9.216;2022-12-05T11:09:17;387.07;;;116.17;;
8407;SDS011;4241;48.452;9.216;2022-12-05T11:11:57;405.40;;;118.47;;
8407;SDS011;4241;48.452;9.216;2022-12-05T11:14:31;409.47;;;118.80;;
8407;SDS011;4241;48.452;9.216;2022-12-05T11:17:01;407.90;;;118.00;;
8407;SDS011;4241;48.452;9.216;2022-12-05T11:19:34;410.10;;;121.13;;
8407;SDS011;4241;48.452;9.216;2022-12-05T11:22:02;404.40;;;118.03;;
8407;SDS011;4241;48.452;9.216;2022-12-05T11:24:32;403.83;;;118.13;;
8407;SDS011;4241;48.452;9.216;2022-12-05T11:29:52;402.73;;;118.00;;
8407;SDS011;4241;48.452;9.216;2022-12-05T11:32:22;369.43;;;111.83;;
8407;SDS011;4241;48.452;9.216;2022-12-05T11:34:51;382.27;;;119.77;;
8407;SDS011;4241;48.452;9.216;2022-12-05T11:37:23;397.50;;;116.43;;
8407;SDS011;4241;48.452;9.216;2022-12-05T11:39:54;402.93;;;118.53;;
8407;SDS011;4241;48.452;9.216;2022-12-05T11:42:26;396.90;;;117.60;;
8407;SDS011;4241;48.452;9.216;2022-12-05T11:45:09;405.40;;;122.83;;
8407;SDS011;4241;48.452;9.216;2022-12-05T11:47:58;386.27;;;116.63;;
8407;SDS011;4241;48.452;9.216;2022-12-05T11:50:36;366.47;;;113.13;;
8407;SDS011;4241;48.452;9.216;2022-12-05T11:53:22;383.07;;;115.57;;
8407;SDS011;4241;48.452;9.216;2022-12-05T11:56:00;391.47;;;118.90;;
8407;SDS011;4241;48.452;9.216;2022-12-05T11:58:40;400.83;;;123.57;;
8407;SDS011;4241;48.452;9.216;2022-12-05T12:01:22;413.50;;;129.60;;
8407;SDS011;4241;48.452;9.216;2022-12-05T12:04:07;413.30;;;122.57;;
8407;SDS011;4241;48.452;9.216;2022-12-05T12:06:46;417.53;;;124.50;;
8407;SDS011;4241;48.452;9.216;2022-12-05T12:09:24;435.83;;;139.33;;
8407;SDS011;4241;48.452;9.216;2022-12-05T12:12:01;409.87;;;124.00;;
8407;SDS011;4241;48.452;9.216;2022-12-05T12:14:36;388.93;;;117.03;;
8407;SDS011;4241;48.452;9.216;2022-12-05T12:17:13;384.03;;;116.87;;
8407;SDS011;4241;48.452;9.216;2022-12-05T12:22:59;382.70;;;116.70;;
8407;SDS011;4241;48.452;9.216;2022-12-05T12:25:43;389.60;;;119.13;;
8407;SDS011;4241;48.452;9.216;2022-12-05T12:28:20;399.83;;;120.80;;
8407;SDS011;4241;48.452;9.216;2022-12-05T12:31:04;399.83;;;120.23;;
8407;SDS011;4241;48.452;9.216;2022-12-05T12:33:42;397.40;;;119.83;;
8407;SDS011;4241;48.452;9.216;2022-12-05T12:36:17;397.17;;;119.47;;
8407;SDS011;4241;48.452;9.216;2022-12-05T12:38:52;401.33;;;120.80;;
8407;SDS011;4241;48.452;9.216;2022-12-05T12:41:39;398.23;;;120.20;;
8407;SDS011;4241;48.452;9.216;2022-12-05T12:44:22;394.70;;;119.10;;
8407;SDS011;4241;48.452;9.216;2022-12-05T12:47:13;406.10;;;123.13;;
8407;SDS011;4241;48.452;9.216;2022-12-05T12:49:50;408.00;;;122.70;;
8407;SDS011;4241;48.452;9.216;2022-12-05T12:52:29;407.70;;;123.07;;
8407;SDS011;4241;48.452;9.216;2022-12-05T12:55:13;411.43;;;123.50;;
8407;SDS011;4241;48.452;9.216;2022-12-05T12:57:51;411.87;;;123.00;;
8407;SDS011;4241;48.452;9.216;2022-12-05T13:00:27;413.07;;;124.33;;
8407;SDS011;4241;48.452;9.216;2022-12-05T13:03:04;413.10;;;123.23;;
8407;SDS011;4241;48.452;9.216;2022-12-05T13:05:37;411.53;;;124.10;;
8407;SDS011;4241;48.452;9.216;2022-12-05T13:08:10;407.80;;;122.47;;
8407;SDS011;4241;48.452;9.216;2022-12-05T13:10:41;411.67;;;124.33;;
8407;SDS011;4241;48.452;9.216;2022-12-05T13:13:11;411.47;;;123.17;;
8407;SDS011;4241;48.452;9.216;2022-12-05T13:15:43;411.17;;;124.73;;
8407;SDS011;4241;48.452;9.216;2022-12-05T13:18:15;410.27;;;123.60;;
8407;SDS011;4241;48.452;9.216;2022-12-05T13:20:44;409.73;;;123.47;;
8407;SDS011;4241;48.452;9.216;2022-12-05T13:23:13;407.73;;;123.20;;
8407;SDS011;4241;48.452;9.216;2022-12-05T13:25:42;408.17;;;123.13;;
8407;SDS011;4241;48.452;9.216;2022-12-05T13:28:15;406.87;;;123.07;;
8407;SDS011;4241;48.452;9.216;2022-12-05T13:30:50;407.13;;;122.87;;
8407;SDS011;4241;48.452;9.216;2022-12-05T13:33:27;396.43;;;121.27;;
8407;SDS011;4241;48.452;9.216;2022-12-05T13:35:56;396.07;;;119.67;;
8407;SDS011;4241;48.452;9.216;2022-12-05T13:38:48;384.30;;;118.07;;
8407;SDS011;4241;48.452;9.216;2022-12-05T13:41:38;380.90;;;115.97;;
8407;SDS011;4241;48.452;9.216;2022-12-05T13:44:27;381.53;;;117.50;;
8407;SDS011;4241;48.452;9.216;2022-12-05T13:46:58;387.97;;;119.33;;
8407;SDS011;4241;48.452;9.216;2022-12-05T13:49:28;385.97;;;117.73;;
8407;SDS011;4241;48.452;9.216;2022-12-05T13:52:04;387.13;;;118.63;;
8407;SDS011;4241;48.452;9.216;2022-12-05T13:54:34;381.80;;;116.37;;
8407;SDS011;4241;48.452;9.216;2022-12-05T13:57:42;374.80;;;114.67;;
8407;SDS011;4241;48.452;9.216;2022-12-05T14:00:21;369.93;;;113.70;;
8407;SDS011;4241;48.452;9.216;2022-12-05T14:02:54;372.27;;;115.37;;
8407;SDS011;4241;48.452;9.216;2022-12-05T14:05:43;359.70;;;111.50;;
8407;SDS011;4241;48.452;9.216;2022-12-05T14:11:16;360.33;;;113.20;;
8407;SDS011;4241;48.452;9.216;2022-12-05T14:13:43;361.30;;;111.90;;
8407;SDS011;4241;48.452;9.216;2022-12-05T14:19:09;357.70;;;109.83;;
8407;SDS011;4241;48.452;9.216;2022-12-05T14:28:15;343.50;;;107.43;;
8407;SDS011;4241;48.452;9.216;2022-12-05T14:30:56;348.83;;;108.37;;
8407;SDS011;4241;48.452;9.216;2022-12-05T14:33:36;348.93;;;108.10;;
8407;SDS011;4241;48.452;9.216;2022-12-05T14:36:03;345.00;;;106.67;;
8407;SDS011;4241;48.452;9.216;2022-12-05T14:38:34;348.70;;;108.83;;
8407;SDS011;4241;48.452;9.216;2022-12-05T14:41:11;341.70;;;105.20;;
8407;SDS011;4241;48.452;9.216;2022-12-05T14:43:41;339.27;;;105.47;;
8407;SDS011;4241;48.452;9.216;2022-12-05T14:46:14;341.97;;;105.90;;
8407;SDS011;4241;48.452;9.216;2022-12-05T14:48:43;342.67;;;107.97;;
8407;SDS011;4241;48.452;9.216;2022-12-05T14:54:10;340.93;;;105.73;;
8407;SDS011;4241;48.452;9.216;2022-12-05T14:56:40;340.37;;;105.43;;
8407;SDS011;4241;48.452;9.216;2022-12-05T14:59:11;339.70;;;105.53;;
8407;SDS011;4241;48.452;9.216;2022-12-05T15:01:48;338.13;;;104.07;;
8407;SDS011;4241;48.452;9.216;2022-12-05T15:04:17;342.07;;;104.80;;
8407;SDS011;4241;48.452;9.216;2022-12-05T15:06:49;338.43;;;104.27;;
8407;SDS011;4241;48.452;9.216;2022-12-05T15:12:17;335.07;;;104.67;;
8407;SDS011;4241;48.452;9.216;2022-12-05T15:14:49;345.60;;;110.40;;
8407;SDS011;4241;48.452;9.216;2022-12-05T15:17:23;337.43;;;105.00;;
8407;SDS011;4241;48.452;9.216;2022-12-05T15:19:55;326.87;;;103.57;;